DON PEDRO RESERVOIR (DNP)

Elevation: 830' · TUOLUMNE R basin · Operator: Turlock Irrigation District

Provisional data, subject to change.
Query executed Tuesday at 11:52:50

Select a sensor type for a plot of data.
Note: Reservoir Flows are daily averages.

Earlier

Date RES ELE    STORAGE    RES CHG    TOC STO    ABV TOC    OUTFLOW    INFLOW    PPT INC   
 FEET   AF   AF   AF   AF   CFS   CFS   INCHES  
11/07/2016 767.40 1334583 1316 1690000 -355417 262 736 0.00
11/08/2016 767.52 1335523 1504 1690000 -354477 169 643 0.00
11/09/2016 767.64 1336463 1694 1690000 -353537 166 640 0.00
11/10/2016 767.76 1338346 1789 1690000 -351654 165 115 0.00
11/11/2016 767.85 1338346 942 1690000 -351654 167 167 0.00
11/12/2016 767.96 1340231 848 1690000 -349769 165 1116 0.00
11/13/2016 768.03 1340231 849 1690000 -349769 166 166 0.00
11/14/2016 768.13 1341174 1604 1690000 -348826 179 654 0.00
11/15/2016 768.23 1342118 566 1690000 -347882 230 706 0.00
11/16/2016 768.35 1343062 1323 1690000 -346938 178 654 0.00
11/17/2016 768.44 1344007 1512 1690000 -345993 177 654 0.00
11/18/2016 768.46 1344952 662 1690000 -345048 432 908 0.00
11/19/2016 768.39 1344007 -567 1690000 -345993 924 447 0.00
11/20/2016 768.49 1344952 945 1690000 -345048 223 700 0.00
11/21/2016 768.59 1345897 1134 1690000 -344103 178 655 0.00
11/22/2016 768.73 1346844 1420 1690000 -343156 179 656 0.00
11/23/2016 768.94 1349116 2272 -- -- -- -- --
11/24/2016 768.96 1349685 474 1690000 -340315 430 908 0.00
11/25/2016 769.08 1350633 1043 1690000 -339367 182 660 0.00
11/26/2016 769.23 1351582 1329 1690000 -338418 181 659 0.00
11/27/2016 769.43 1353481 2089 1690000 -336519 181 1138 0.00
11/28/2016 769.59 1355382 1711 1690000 -334618 199 1158 0.00
11/29/2016 769.76 1357285 1332 1690000 -332715 192 1151 0.00
11/30/2016 769.89 1358237 762 1690000 -331763 177 657 0.00
12/01/2016 770.06 1360143 963 1690000 -329857 178 1139 0.00
12/02/2016 770.14 1360143 382 1690000 -329857 179 179 0.00
12/03/2016 770.27 1362051 1144 1690000 -327949 179 1141 0.00
12/04/2016 770.38 1363006 1242 1690000 -326994 178 660 0.00
12/05/2016 770.48 1363770 764 -- -- -- -- --
12/06/2016 -- -- -- -- -- -- -- --

Later | Latest

Warning! This data is preliminary and subject to revision.

Show DNP Map | Plot DNP Data | 1 Month DNP Data | Real-Time DNP Data | DNP Info